sensor_id;sensor_type;location;lat;lon;timestamp;P1;durP1;ratioP1;P2;durP2;ratioP2
78365;SDS011;67641;59.864;30.464;2023-07-20T00:02:24;7.28;;;2.40;;
78365;SDS011;67641;59.864;30.464;2023-07-20T00:04:51;7.65;;;2.63;;
78365;SDS011;67641;59.864;30.464;2023-07-20T00:07:17;4.65;;;2.63;;
78365;SDS011;67641;59.864;30.464;2023-07-20T00:09:44;6.03;;;2.90;;
78365;SDS011;67641;59.864;30.464;2023-07-20T00:12:11;6.80;;;2.38;;
78365;SDS011;67641;59.864;30.464;2023-07-20T00:14:37;3.70;;;2.28;;
78365;SDS011;67641;59.864;30.464;2023-07-20T00:17:04;4.70;;;2.42;;
78365;SDS011;67641;59.864;30.464;2023-07-20T00:21:34;4.57;;;2.35;;
78365;SDS011;67641;59.864;30.464;2023-07-20T00:24:02;4.38;;;2.50;;
78365;SDS011;67641;59.864;30.464;2023-07-20T00:26:29;4.63;;;2.45;;
78365;SDS011;67641;59.864;30.464;2023-07-20T00:28:55;7.00;;;2.47;;
78365;SDS011;67641;59.864;30.464;2023-07-20T00:31:22;5.13;;;2.40;;
78365;SDS011;67641;59.864;30.464;2023-07-20T00:33:49;8.90;;;2.75;;
78365;SDS011;67641;59.864;30.464;2023-07-20T00:36:15;6.72;;;2.47;;
78365;SDS011;67641;59.864;30.464;2023-07-20T00:38:42;6.03;;;2.50;;
78365;SDS011;67641;59.864;30.464;2023-07-20T00:42:41;6.68;;;2.65;;
78365;SDS011;67641;59.864;30.464;2023-07-20T00:45:08;7.05;;;3.00;;
78365;SDS011;67641;59.864;30.464;2023-07-20T00:47:36;4.43;;;2.55;;
78365;SDS011;67641;59.864;30.464;2023-07-20T00:50:05;4.38;;;2.25;;
78365;SDS011;67641;59.864;30.464;2023-07-20T00:52:33;5.78;;;2.50;;
78365;SDS011;67641;59.864;30.464;2023-07-20T00:54:59;4.95;;;2.38;;
78365;SDS011;67641;59.864;30.464;2023-07-20T00:57:27;6.00;;;2.40;;
78365;SDS011;67641;59.864;30.464;2023-07-20T00:59:54;4.28;;;2.53;;
78365;SDS011;67641;59.864;30.464;2023-07-20T01:02:36;4.80;;;2.20;;
78365;SDS011;67641;59.864;30.464;2023-07-20T01:05:02;5.63;;;3.03;;
78365;SDS011;67641;59.864;30.464;2023-07-20T01:07:41;4.50;;;2.55;;
78365;SDS011;67641;59.864;30.464;2023-07-20T01:10:19;5.53;;;3.17;;
78365;SDS011;67641;59.864;30.464;2023-07-20T01:12:47;8.18;;;3.03;;
78365;SDS011;67641;59.864;30.464;2023-07-20T01:15:17;4.97;;;2.70;;
78365;SDS011;67641;59.864;30.464;2023-07-20T01:17:44;5.78;;;3.00;;
78365;SDS011;67641;59.864;30.464;2023-07-20T01:20:15;5.20;;;2.75;;
78365;SDS011;67641;59.864;30.464;2023-07-20T01:25:54;5.93;;;2.20;;
78365;SDS011;67641;59.864;30.464;2023-07-20T01:28:32;5.30;;;2.00;;
78365;SDS011;67641;59.864;30.464;2023-07-20T01:33:50;5.95;;;2.55;;
78365;SDS011;67641;59.864;30.464;2023-07-20T01:36:19;5.43;;;1.88;;
78365;SDS011;67641;59.864;30.464;2023-07-20T01:38:50;5.82;;;2.10;;
78365;SDS011;67641;59.864;30.464;2023-07-20T01:44:03;7.10;;;2.50;;
78365;SDS011;67641;59.864;30.464;2023-07-20T01:46:30;5.13;;;2.05;;
78365;SDS011;67641;59.864;30.464;2023-07-20T01:48:57;4.88;;;2.25;;
78365;SDS011;67641;59.864;30.464;2023-07-20T01:51:23;6.63;;;2.13;;
78365;SDS011;67641;59.864;30.464;2023-07-20T01:53:50;3.25;;;1.85;;
78365;SDS011;67641;59.864;30.464;2023-07-20T01:56:17;3.90;;;1.90;;
78365;SDS011;67641;59.864;30.464;2023-07-20T01:58:43;5.10;;;2.28;;
78365;SDS011;67641;59.864;30.464;2023-07-20T02:01:10;5.38;;;2.08;;
78365;SDS011;67641;59.864;30.464;2023-07-20T02:05:23;4.70;;;2.25;;
78365;SDS011;67641;59.864;30.464;2023-07-20T02:07:50;5.18;;;2.53;;
78365;SDS011;67641;59.864;30.464;2023-07-20T02:10:17;6.10;;;2.60;;
78365;SDS011;67641;59.864;30.464;2023-07-20T02:12:43;5.28;;;2.65;;
78365;SDS011;67641;59.864;30.464;2023-07-20T02:15:10;5.70;;;2.35;;
78365;SDS011;67641;59.864;30.464;2023-07-20T02:17:39;5.40;;;2.47;;
78365;SDS011;67641;59.864;30.464;2023-07-20T02:20:08;7.45;;;2.72;;
78365;SDS011;67641;59.864;30.464;2023-07-20T02:22:38;4.78;;;2.58;;
78365;SDS011;67641;59.864;30.464;2023-07-20T02:27:30;5.18;;;2.28;;
78365;SDS011;67641;59.864;30.464;2023-07-20T02:29:56;4.28;;;2.40;;
78365;SDS011;67641;59.864;30.464;2023-07-20T02:32:23;4.88;;;2.17;;
78365;SDS011;67641;59.864;30.464;2023-07-20T02:34:50;5.03;;;2.33;;
78365;SDS011;67641;59.864;30.464;2023-07-20T02:37:16;5.97;;;2.30;;
78365;SDS011;67641;59.864;30.464;2023-07-20T02:39:43;5.28;;;2.20;;
78365;SDS011;67641;59.864;30.464;2023-07-20T02:42:10;3.63;;;2.50;;
78365;SDS011;67641;59.864;30.464;2023-07-20T02:44:36;4.25;;;2.40;;
78365;SDS011;67641;59.864;30.464;2023-07-20T02:48:54;5.53;;;2.50;;
78365;SDS011;67641;59.864;30.464;2023-07-20T02:51:21;5.07;;;2.30;;
78365;SDS011;67641;59.864;30.464;2023-07-20T02:53:49;4.03;;;2.40;;
78365;SDS011;67641;59.864;30.464;2023-07-20T02:56:20;4.43;;;2.15;;
78365;SDS011;67641;59.864;30.464;2023-07-20T02:58:46;4.22;;;2.10;;
78365;SDS011;67641;59.864;30.464;2023-07-20T03:01:13;5.35;;;2.42;;
78365;SDS011;67641;59.864;30.464;2023-07-20T03:03:41;4.10;;;2.25;;
78365;SDS011;67641;59.864;30.464;2023-07-20T03:06:13;4.28;;;2.20;;
78365;SDS011;67641;59.864;30.464;2023-07-20T03:11:00;4.63;;;2.53;;
78365;SDS011;67641;59.864;30.464;2023-07-20T03:13:27;5.78;;;2.40;;
78365;SDS011;67641;59.864;30.464;2023-07-20T03:15:53;5.78;;;2.17;;
78365;SDS011;67641;59.864;30.464;2023-07-20T03:18:20;9.73;;;2.38;;
78365;SDS011;67641;59.864;30.464;2023-07-20T03:20:46;6.72;;;3.00;;
78365;SDS011;67641;59.864;30.464;2023-07-20T03:23:14;5.10;;;2.15;;
78365;SDS011;67641;59.864;30.464;2023-07-20T03:25:42;5.22;;;2.30;;
78365;SDS011;67641;59.864;30.464;2023-07-20T03:28:11;11.02;;;2.42;;
78365;SDS011;67641;59.864;30.464;2023-07-20T03:32:35;6.32;;;2.13;;
78365;SDS011;67641;59.864;30.464;2023-07-20T03:35:02;5.10;;;2.00;;
78365;SDS011;67641;59.864;30.464;2023-07-20T03:37:28;4.18;;;2.20;;
78365;SDS011;67641;59.864;30.464;2023-07-20T03:39:55;6.78;;;2.20;;
78365;SDS011;67641;59.864;30.464;2023-07-20T03:42:22;3.80;;;2.10;;
78365;SDS011;67641;59.864;30.464;2023-07-20T03:44:49;4.10;;;2.30;;
78365;SDS011;67641;59.864;30.464;2023-07-20T03:47:16;6.35;;;2.38;;
78365;SDS011;67641;59.864;30.464;2023-07-20T03:49:43;4.00;;;2.10;;
78365;SDS011;67641;59.864;30.464;2023-07-20T03:52:56;4.57;;;2.70;;
78365;SDS011;67641;59.864;30.464;2023-07-20T03:55:22;5.32;;;2.55;;
78365;SDS011;67641;59.864;30.464;2023-07-20T03:57:50;4.85;;;2.30;;
78365;SDS011;67641;59.864;30.464;2023-07-20T04:00:17;5.88;;;2.63;;
78365;SDS011;67641;59.864;30.464;2023-07-20T04:02:45;5.43;;;2.42;;
78365;SDS011;67641;59.864;30.464;2023-07-20T04:05:12;5.65;;;2.30;;
78365;SDS011;67641;59.864;30.464;2023-07-20T04:07:39;5.18;;;2.35;;
78365;SDS011;67641;59.864;30.464;2023-07-20T04:10:05;4.25;;;2.30;;
78365;SDS011;67641;59.864;30.464;2023-07-20T04:15:07;3.92;;;2.00;;
78365;SDS011;67641;59.864;30.464;2023-07-20T04:17:34;5.20;;;2.05;;
78365;SDS011;67641;59.864;30.464;2023-07-20T04:20:00;3.78;;;1.63;;
78365;SDS011;67641;59.864;30.464;2023-07-20T04:22:28;4.78;;;1.88;;
78365;SDS011;67641;59.864;30.464;2023-07-20T04:24:55;4.32;;;1.90;;
78365;SDS011;67641;59.864;30.464;2023-07-20T04:27:22;5.32;;;2.03;;
78365;SDS011;67641;59.864;30.464;2023-07-20T04:29:52;3.47;;;2.00;;
78365;SDS011;67641;59.864;30.464;2023-07-20T04:32:19;4.78;;;2.05;;
78365;SDS011;67641;59.864;30.464;2023-07-20T04:37:08;3.67;;;1.65;;
78365;SDS011;67641;59.864;30.464;2023-07-20T04:39:35;4.28;;;1.80;;
78365;SDS011;67641;59.864;30.464;2023-07-20T04:42:03;4.50;;;1.92;;
78365;SDS011;67641;59.864;30.464;2023-07-20T04:44:29;3.63;;;1.70;;
78365;SDS011;67641;59.864;30.464;2023-07-20T04:46:57;4.75;;;1.90;;
78365;SDS011;67641;59.864;30.464;2023-07-20T04:49:24;6.13;;;1.90;;
78365;SDS011;67641;59.864;30.464;2023-07-20T04:51:51;8.52;;;1.67;;
78365;SDS011;67641;59.864;30.464;2023-07-20T04:54:19;4.25;;;1.80;;
78365;SDS011;67641;59.864;30.464;2023-07-20T04:59:18;5.38;;;2.35;;
78365;SDS011;67641;59.864;30.464;2023-07-20T05:01:45;5.15;;;2.10;;
78365;SDS011;67641;59.864;30.464;2023-07-20T05:04:12;5.32;;;2.00;;
78365;SDS011;67641;59.864;30.464;2023-07-20T05:06:39;8.07;;;2.20;;
78365;SDS011;67641;59.864;30.464;2023-07-20T05:09:05;5.93;;;2.50;;
78365;SDS011;67641;59.864;30.464;2023-07-20T05:11:35;4.25;;;2.10;;
78365;SDS011;67641;59.864;30.464;2023-07-20T05:14:01;4.18;;;2.00;;
78365;SDS011;67641;59.864;30.464;2023-07-20T05:16:28;4.82;;;2.30;;
78365;SDS011;67641;59.864;30.464;2023-07-20T05:21:09;5.63;;;1.63;;
78365;SDS011;67641;59.864;30.464;2023-07-20T05:23:35;6.75;;;2.25;;
78365;SDS011;67641;59.864;30.464;2023-07-20T05:26:02;5.43;;;1.80;;
78365;SDS011;67641;59.864;30.464;2023-07-20T05:28:28;4.20;;;2.03;;
78365;SDS011;67641;59.864;30.464;2023-07-20T05:30:55;5.05;;;2.10;;
78365;SDS011;67641;59.864;30.464;2023-07-20T05:33:22;5.60;;;1.92;;
78365;SDS011;67641;59.864;30.464;2023-07-20T05:35:49;5.18;;;2.22;;
78365;SDS011;67641;59.864;30.464;2023-07-20T05:38:16;7.03;;;1.83;;
78365;SDS011;67641;59.864;30.464;2023-07-20T05:42:58;8.00;;;1.90;;
78365;SDS011;67641;59.864;30.464;2023-07-20T05:45:26;3.72;;;2.05;;
78365;SDS011;67641;59.864;30.464;2023-07-20T05:47:53;5.18;;;1.95;;
78365;SDS011;67641;59.864;30.464;2023-07-20T05:50:19;4.55;;;1.80;;
78365;SDS011;67641;59.864;30.464;2023-07-20T05:52:46;4.07;;;2.05;;
78365;SDS011;67641;59.864;30.464;2023-07-20T05:55:13;4.35;;;1.92;;
78365;SDS011;67641;59.864;30.464;2023-07-20T05:57:40;6.10;;;2.28;;
78365;SDS011;67641;59.864;30.464;2023-07-20T06:00:08;4.20;;;2.10;;
78365;SDS011;67641;59.864;30.464;2023-07-20T06:05:06;3.50;;;1.60;;
78365;SDS011;67641;59.864;30.464;2023-07-20T06:07:36;4.55;;;2.00;;
78365;SDS011;67641;59.864;30.464;2023-07-20T06:10:03;3.22;;;1.50;;
78365;SDS011;67641;59.864;30.464;2023-07-20T06:12:31;5.10;;;1.75;;
78365;SDS011;67641;59.864;30.464;2023-07-20T06:15:02;6.05;;;1.85;;
78365;SDS011;67641;59.864;30.464;2023-07-20T06:17:29;3.80;;;1.67;;
78365;SDS011;67641;59.864;30.464;2023-07-20T06:19:56;4.80;;;1.60;;
78365;SDS011;67641;59.864;30.464;2023-07-20T06:22:23;3.97;;;1.95;;
78365;SDS011;67641;59.864;30.464;2023-07-20T06:25:10;3.95;;;1.80;;
78365;SDS011;67641;59.864;30.464;2023-07-20T06:27:36;3.95;;;1.90;;
78365;SDS011;67641;59.864;30.464;2023-07-20T06:30:04;3.00;;;1.60;;
78365;SDS011;67641;59.864;30.464;2023-07-20T06:32:31;4.88;;;1.77;;
78365;SDS011;67641;59.864;30.464;2023-07-20T06:34:58;3.38;;;1.70;;
78365;SDS011;67641;59.864;30.464;2023-07-20T06:37:24;6.65;;;2.00;;
78365;SDS011;67641;59.864;30.464;2023-07-20T06:39:51;5.60;;;1.90;;
78365;SDS011;67641;59.864;30.464;2023-07-20T06:42:20;4.70;;;1.65;;
78365;SDS011;67641;59.864;30.464;2023-07-20T06:46:31;6.38;;;1.80;;
78365;SDS011;67641;59.864;30.464;2023-07-20T06:48:58;4.10;;;1.80;;
78365;SDS011;67641;59.864;30.464;2023-07-20T06:51:25;8.45;;;2.05;;
78365;SDS011;67641;59.864;30.464;2023-07-20T06:53:51;4.85;;;1.70;;
78365;SDS011;67641;59.864;30.464;2023-07-20T06:56:18;5.43;;;1.88;;
78365;SDS011;67641;59.864;30.464;2023-07-20T06:58:45;5.28;;;1.90;;
78365;SDS011;67641;59.864;30.464;2023-07-20T07:01:13;4.75;;;1.65;;
78365;SDS011;67641;59.864;30.464;2023-07-20T07:03:40;4.30;;;1.65;;
78365;SDS011;67641;59.864;30.464;2023-07-20T07:08:06;7.72;;;1.90;;
78365;SDS011;67641;59.864;30.464;2023-07-20T07:10:34;4.35;;;1.95;;
78365;SDS011;67641;59.864;30.464;2023-07-20T07:13:02;6.68;;;1.70;;
78365;SDS011;67641;59.864;30.464;2023-07-20T07:15:32;4.10;;;1.75;;
78365;SDS011;67641;59.864;30.464;2023-07-20T07:17:59;5.20;;;1.67;;
78365;SDS011;67641;59.864;30.464;2023-07-20T07:20:26;5.57;;;1.60;;
78365;SDS011;67641;59.864;30.464;2023-07-20T07:22:53;4.32;;;1.58;;
78365;SDS011;67641;59.864;30.464;2023-07-20T07:25:21;6.25;;;2.03;;
78365;SDS011;67641;59.864;30.464;2023-07-20T07:29:28;4.90;;;1.50;;
78365;SDS011;67641;59.864;30.464;2023-07-20T07:31:55;6.80;;;1.67;;
78365;SDS011;67641;59.864;30.464;2023-07-20T07:34:22;6.65;;;2.00;;
78365;SDS011;67641;59.864;30.464;2023-07-20T07:36:48;7.20;;;1.80;;
78365;SDS011;67641;59.864;30.464;2023-07-20T07:39:16;4.20;;;1.80;;
78365;SDS011;67641;59.864;30.464;2023-07-20T07:41:43;5.72;;;1.92;;
78365;SDS011;67641;59.864;30.464;2023-07-20T07:44:10;5.93;;;1.75;;
78365;SDS011;67641;59.864;30.464;2023-07-20T07:46:37;5.13;;;1.92;;
78365;SDS011;67641;59.864;30.464;2023-07-20T07:51:38;7.50;;;2.30;;
78365;SDS011;67641;59.864;30.464;2023-07-20T07:54:05;7.70;;;2.28;;
78365;SDS011;67641;59.864;30.464;2023-07-20T07:56:32;4.97;;;2.15;;
78365;SDS011;67641;59.864;30.464;2023-07-20T07:58:59;5.57;;;2.28;;
78365;SDS011;67641;59.864;30.464;2023-07-20T08:01:25;6.97;;;2.05;;
78365;SDS011;67641;59.864;30.464;2023-07-20T08:03:52;6.32;;;2.20;;
78365;SDS011;67641;59.864;30.464;2023-07-20T08:06:19;4.07;;;1.88;;
78365;SDS011;67641;59.864;30.464;2023-07-20T08:08:45;4.05;;;2.25;;
78365;SDS011;67641;59.864;30.464;2023-07-20T08:12:54;4.00;;;1.80;;
78365;SDS011;67641;59.864;30.464;2023-07-20T08:15:20;3.25;;;1.83;;
78365;SDS011;67641;59.864;30.464;2023-07-20T08:17:47;5.53;;;1.92;;
78365;SDS011;67641;59.864;30.464;2023-07-20T08:20:14;4.00;;;1.58;;
78365;SDS011;67641;59.864;30.464;2023-07-20T08:22:43;5.18;;;1.60;;
78365;SDS011;67641;59.864;30.464;2023-07-20T08:25:11;6.97;;;2.00;;
78365;SDS011;67641;59.864;30.464;2023-07-20T08:27:38;4.32;;;1.77;;
78365;SDS011;67641;59.864;30.464;2023-07-20T08:30:06;4.22;;;1.77;;
78365;SDS011;67641;59.864;30.464;2023-07-20T08:34:32;6.28;;;1.60;;
78365;SDS011;67641;59.864;30.464;2023-07-20T08:36:58;6.65;;;1.75;;
78365;SDS011;67641;59.864;30.464;2023-07-20T08:39:25;4.45;;;1.40;;
78365;SDS011;67641;59.864;30.464;2023-07-20T08:41:51;4.70;;;1.63;;
78365;SDS011;67641;59.864;30.464;2023-07-20T08:44:19;9.48;;;1.50;;
78365;SDS011;67641;59.864;30.464;2023-07-20T08:46:46;3.88;;;1.30;;
78365;SDS011;67641;59.864;30.464;2023-07-20T08:49:15;4.45;;;1.52;;
78365;SDS011;67641;59.864;30.464;2023-07-20T08:51:45;6.22;;;1.60;;
78365;SDS011;67641;59.864;30.464;2023-07-20T08:56:23;6.03;;;1.40;;
78365;SDS011;67641;59.864;30.464;2023-07-20T08:58:54;6.10;;;1.33;;
78365;SDS011;67641;59.864;30.464;2023-07-20T09:01:25;3.50;;;1.25;;
78365;SDS011;67641;59.864;30.464;2023-07-20T09:03:55;4.93;;;1.55;;
78365;SDS011;67641;59.864;30.464;2023-07-20T09:06:23;4.15;;;1.50;;
78365;SDS011;67641;59.864;30.464;2023-07-20T09:08:50;3.83;;;1.60;;
78365;SDS011;67641;59.864;30.464;2023-07-20T09:11:17;5.88;;;1.40;;
78365;SDS011;67641;59.864;30.464;2023-07-20T09:13:44;4.78;;;1.58;;
78365;SDS011;67641;59.864;30.464;2023-07-20T09:17:27;6.10;;;1.63;;
78365;SDS011;67641;59.864;30.464;2023-07-20T09:19:53;4.75;;;1.50;;
78365;SDS011;67641;59.864;30.464;2023-07-20T09:22:20;3.35;;;1.83;;
78365;SDS011;67641;59.864;30.464;2023-07-20T09:24:47;5.22;;;1.60;;
78365;SDS011;67641;59.864;30.464;2023-07-20T09:27:14;3.88;;;1.80;;
78365;SDS011;67641;59.864;30.464;2023-07-20T09:29:49;6.95;;;1.70;;
78365;SDS011;67641;59.864;30.464;2023-07-20T09:32:19;2.75;;;1.60;;
78365;SDS011;67641;59.864;30.464;2023-07-20T09:34:46;4.93;;;1.63;;
78365;SDS011;67641;59.864;30.464;2023-07-20T09:39:20;5.18;;;1.88;;
78365;SDS011;67641;59.864;30.464;2023-07-20T09:41:46;3.20;;;1.52;;
78365;SDS011;67641;59.864;30.464;2023-07-20T09:44:15;8.15;;;1.95;;
78365;SDS011;67641;59.864;30.464;2023-07-20T09:46:48;4.82;;;2.28;;
78365;SDS011;67641;59.864;30.464;2023-07-20T09:49:19;7.32;;;2.25;;
78365;SDS011;67641;59.864;30.464;2023-07-20T09:51:46;5.15;;;1.85;;
78365;SDS011;67641;59.864;30.464;2023-07-20T09:54:12;7.50;;;2.13;;
78365;SDS011;67641;59.864;30.464;2023-07-20T09:56:39;5.07;;;1.95;;
78365;SDS011;67641;59.864;30.464;2023-07-20T09:59:26;7.22;;;1.75;;
78365;SDS011;67641;59.864;30.464;2023-07-20T10:01:53;7.68;;;2.10;;
78365;SDS011;67641;59.864;30.464;2023-07-20T10:04:25;5.00;;;1.77;;
78365;SDS011;67641;59.864;30.464;2023-07-20T10:06:52;4.68;;;1.83;;
78365;SDS011;67641;59.864;30.464;2023-07-20T10:09:22;3.80;;;1.45;;
78365;SDS011;67641;59.864;30.464;2023-07-20T10:11:51;7.43;;;2.00;;
78365;SDS011;67641;59.864;30.464;2023-07-20T10:14:20;5.53;;;1.60;;
78365;SDS011;67641;59.864;30.464;2023-07-20T10:16:49;4.53;;;1.85;;
78365;SDS011;67641;59.864;30.464;2023-07-20T10:21:02;3.80;;;2.17;;
78365;SDS011;67641;59.864;30.464;2023-07-20T10:23:36;5.03;;;1.80;;
78365;SDS011;67641;59.864;30.464;2023-07-20T10:26:04;4.30;;;1.73;;
78365;SDS011;67641;59.864;30.464;2023-07-20T10:28:31;7.50;;;1.73;;
78365;SDS011;67641;59.864;30.464;2023-07-20T10:30:58;5.38;;;1.52;;
78365;SDS011;67641;59.864;30.464;2023-07-20T10:33:25;8.20;;;1.90;;
78365;SDS011;67641;59.864;30.464;2023-07-20T10:38:37;3.00;;;1.50;;
78365;SDS011;67641;59.864;30.464;2023-07-20T10:44:02;5.40;;;1.75;;
78365;SDS011;67641;59.864;30.464;2023-07-20T10:46:33;6.97;;;1.85;;
78365;SDS011;67641;59.864;30.464;2023-07-20T10:49:06;4.60;;;1.70;;
78365;SDS011;67641;59.864;30.464;2023-07-20T10:52:07;4.00;;;1.90;;
78365;SDS011;67641;59.864;30.464;2023-07-20T10:56:57;4.47;;;1.70;;
78365;SDS011;67641;59.864;30.464;2023-07-20T11:02:18;8.63;;;1.42;;
78365;SDS011;67641;59.864;30.464;2023-07-20T11:04:48;5.07;;;1.60;;
78365;SDS011;67641;59.864;30.464;2023-07-20T11:07:15;3.78;;;1.42;;
78365;SDS011;67641;59.864;30.464;2023-07-20T11:09:45;7.75;;;1.80;;
78365;SDS011;67641;59.864;30.464;2023-07-20T11:12:14;7.97;;;1.45;;
78365;SDS011;67641;59.864;30.464;2023-07-20T11:14:54;4.68;;;1.40;;
78365;SDS011;67641;59.864;30.464;2023-07-20T11:17:28;3.58;;;1.33;;
78365;SDS011;67641;59.864;30.464;2023-07-20T11:19:56;3.30;;;1.45;;
78365;SDS011;67641;59.864;30.464;2023-07-20T11:23:59;4.35;;;1.33;;
78365;SDS011;67641;59.864;30.464;2023-07-20T11:26:30;3.25;;;1.17;;
78365;SDS011;67641;59.864;30.464;2023-07-20T11:28:56;4.00;;;1.40;;
78365;SDS011;67641;59.864;30.464;2023-07-20T11:31:24;5.88;;;1.73;;
78365;SDS011;67641;59.864;30.464;2023-07-20T11:33:50;4.15;;;1.50;;
78365;SDS011;67641;59.864;30.464;2023-07-20T11:36:17;2.80;;;1.25;;
78365;SDS011;67641;59.864;30.464;2023-07-20T11:38:45;5.68;;;1.33;;
78365;SDS011;67641;59.864;30.464;2023-07-20T11:41:12;6.80;;;1.70;;
78365;SDS011;67641;59.864;30.464;2023-07-20T11:45:56;6.50;;;1.30;;
78365;SDS011;67641;59.864;30.464;2023-07-20T11:48:23;5.30;;;1.27;;
78365;SDS011;67641;59.864;30.464;2023-07-20T11:50:50;4.15;;;1.40;;
78365;SDS011;67641;59.864;30.464;2023-07-20T11:53:17;4.30;;;1.30;;
78365;SDS011;67641;59.864;30.464;2023-07-20T11:55:44;3.58;;;1.48;;
78365;SDS011;67641;59.864;30.464;2023-07-20T11:58:12;7.30;;;1.35;;
78365;SDS011;67641;59.864;30.464;2023-07-20T12:00:43;3.97;;;1.30;;
78365;SDS011;67641;59.864;30.464;2023-07-20T12:03:11;3.25;;;1.50;;
78365;SDS011;67641;59.864;30.464;2023-07-20T12:07:07;5.05;;;1.50;;
78365;SDS011;67641;59.864;30.464;2023-07-20T12:09:33;7.28;;;1.30;;
78365;SDS011;67641;59.864;30.464;2023-07-20T12:12:00;6.90;;;1.40;;
78365;SDS011;67641;59.864;30.464;2023-07-20T12:14:37;4.70;;;1.52;;
78365;SDS011;67641;59.864;30.464;2023-07-20T12:17:04;5.93;;;1.20;;
78365;SDS011;67641;59.864;30.464;2023-07-20T12:19:37;3.90;;;1.63;;
78365;SDS011;67641;59.864;30.464;2023-07-20T12:22:06;4.88;;;1.42;;
78365;SDS011;67641;59.864;30.464;2023-07-20T12:24:34;4.55;;;1.35;;
78365;SDS011;67641;59.864;30.464;2023-07-20T12:27:15;7.72;;;1.52;;
78365;SDS011;67641;59.864;30.464;2023-07-20T12:29:42;3.45;;;1.40;;
78365;SDS011;67641;59.864;30.464;2023-07-20T12:32:08;6.18;;;1.63;;
78365;SDS011;67641;59.864;30.464;2023-07-20T12:34:34;5.82;;;1.55;;
78365;SDS011;67641;59.864;30.464;2023-07-20T12:37:02;4.63;;;1.40;;
78365;SDS011;67641;59.864;30.464;2023-07-20T12:39:29;6.03;;;1.40;;
78365;SDS011;67641;59.864;30.464;2023-07-20T12:41:56;5.93;;;1.35;;
78365;SDS011;67641;59.864;30.464;2023-07-20T12:44:26;7.00;;;1.45;;
78365;SDS011;67641;59.864;30.464;2023-07-20T12:48:22;5.05;;;1.33;;
78365;SDS011;67641;59.864;30.464;2023-07-20T12:50:48;2.67;;;1.50;;
78365;SDS011;67641;59.864;30.464;2023-07-20T12:53:15;4.00;;;1.33;;
78365;SDS011;67641;59.864;30.464;2023-07-20T12:55:42;4.03;;;1.50;;
78365;SDS011;67641;59.864;30.464;2023-07-20T12:58:10;2.92;;;1.40;;
78365;SDS011;67641;59.864;30.464;2023-07-20T13:00:37;5.80;;;1.38;;
78365;SDS011;67641;59.864;30.464;2023-07-20T13:03:03;3.88;;;1.30;;
78365;SDS011;67641;59.864;30.464;2023-07-20T13:05:33;2.97;;;1.30;;
78365;SDS011;67641;59.864;30.464;2023-07-20T13:09:54;3.40;;;1.65;;
78365;SDS011;67641;59.864;30.464;2023-07-20T13:12:20;2.97;;;1.25;;
78365;SDS011;67641;59.864;30.464;2023-07-20T13:14:46;4.50;;;1.40;;
78365;SDS011;67641;59.864;30.464;2023-07-20T13:17:13;2.88;;;1.30;;
78365;SDS011;67641;59.864;30.464;2023-07-20T13:19:39;4.55;;;1.50;;
78365;SDS011;67641;59.864;30.464;2023-07-20T13:22:07;5.07;;;1.20;;
78365;SDS011;67641;59.864;30.464;2023-07-20T13:24:34;5.18;;;1.17;;
78365;SDS011;67641;59.864;30.464;2023-07-20T13:27:00;2.38;;;1.15;;
78365;SDS011;67641;59.864;30.464;2023-07-20T13:31:01;4.75;;;1.50;;
78365;SDS011;67641;59.864;30.464;2023-07-20T13:33:27;4.40;;;1.50;;
78365;SDS011;67641;59.864;30.464;2023-07-20T13:35:55;4.95;;;1.60;;
78365;SDS011;67641;59.864;30.464;2023-07-20T13:38:21;4.30;;;1.58;;
78365;SDS011;67641;59.864;30.464;2023-07-20T13:40:48;3.38;;;1.48;;
78365;SDS011;67641;59.864;30.464;2023-07-20T13:43:14;4.20;;;1.48;;
78365;SDS011;67641;59.864;30.464;2023-07-20T13:45:41;4.95;;;1.58;;
78365;SDS011;67641;59.864;30.464;2023-07-20T13:48:07;3.40;;;1.52;;
78365;SDS011;67641;59.864;30.464;2023-07-20T13:53:05;3.03;;;1.30;;
78365;SDS011;67641;59.864;30.464;2023-07-20T13:55:32;5.45;;;1.30;;
78365;SDS011;67641;59.864;30.464;2023-07-20T13:58:02;2.45;;;0.93;;
78365;SDS011;67641;59.864;30.464;2023-07-20T14:00:28;4.05;;;1.23;;
78365;SDS011;67641;59.864;30.464;2023-07-20T14:02:58;6.38;;;1.40;;
78365;SDS011;67641;59.864;30.464;2023-07-20T14:05:25;3.10;;;1.10;;
78365;SDS011;67641;59.864;30.464;2023-07-20T14:07:51;3.50;;;1.10;;
78365;SDS011;67641;59.864;30.464;2023-07-20T14:10:18;5.63;;;1.25;;
78365;SDS011;67641;59.864;30.464;2023-07-20T14:14:40;2.83;;;1.20;;
78365;SDS011;67641;59.864;30.464;2023-07-20T14:17:07;1.95;;;1.20;;
78365;SDS011;67641;59.864;30.464;2023-07-20T14:19:33;6.53;;;1.20;;
78365;SDS011;67641;59.864;30.464;2023-07-20T14:22:00;4.40;;;1.40;;
78365;SDS011;67641;59.864;30.464;2023-07-20T14:24:26;4.93;;;1.38;;
78365;SDS011;67641;59.864;30.464;2023-07-20T14:26:53;2.70;;;1.30;;
78365;SDS011;67641;59.864;30.464;2023-07-20T14:29:20;4.85;;;1.30;;
78365;SDS011;67641;59.864;30.464;2023-07-20T14:31:47;4.22;;;1.55;;
78365;SDS011;67641;59.864;30.464;2023-07-20T14:36:52;3.70;;;1.40;;
78365;SDS011;67641;59.864;30.464;2023-07-20T14:39:19;3.53;;;1.35;;
78365;SDS011;67641;59.864;30.464;2023-07-20T14:41:46;3.63;;;1.20;;
78365;SDS011;67641;59.864;30.464;2023-07-20T14:44:12;2.83;;;1.30;;
78365;SDS011;67641;59.864;30.464;2023-07-20T14:46:38;1.98;;;0.90;;
78365;SDS011;67641;59.864;30.464;2023-07-20T14:49:05;3.33;;;1.15;;
78365;SDS011;67641;59.864;30.464;2023-07-20T14:51:31;5.43;;;1.30;;
78365;SDS011;67641;59.864;30.464;2023-07-20T14:53:59;6.28;;;1.42;;
78365;SDS011;67641;59.864;30.464;2023-07-20T14:58:07;3.95;;;1.15;;
78365;SDS011;67641;59.864;30.464;2023-07-20T15:00:33;6.53;;;1.45;;
78365;SDS011;67641;59.864;30.464;2023-07-20T15:03:00;2.83;;;1.38;;
78365;SDS011;67641;59.864;30.464;2023-07-20T15:05:27;7.18;;;1.20;;
78365;SDS011;67641;59.864;30.464;2023-07-20T15:07:53;4.45;;;1.17;;
78365;SDS011;67641;59.864;30.464;2023-07-20T15:10:19;3.88;;;1.23;;
78365;SDS011;67641;59.864;30.464;2023-07-20T15:12:46;4.38;;;1.10;;
78365;SDS011;67641;59.864;30.464;2023-07-20T15:17:57;4.15;;;1.25;;
78365;SDS011;67641;59.864;30.464;2023-07-20T15:20:23;4.55;;;1.42;;
78365;SDS011;67641;59.864;30.464;2023-07-20T15:22:50;3.92;;;1.38;;
78365;SDS011;67641;59.864;30.464;2023-07-20T15:25:17;6.68;;;1.55;;
78365;SDS011;67641;59.864;30.464;2023-07-20T15:27:43;4.60;;;1.38;;
78365;SDS011;67641;59.864;30.464;2023-07-20T15:30:09;3.15;;;1.10;;
78365;SDS011;67641;59.864;30.464;2023-07-20T15:32:36;3.75;;;1.10;;
78365;SDS011;67641;59.864;30.464;2023-07-20T15:35:02;5.28;;;1.25;;
78365;SDS011;67641;59.864;30.464;2023-07-20T15:39:16;5.50;;;1.45;;
78365;SDS011;67641;59.864;30.464;2023-07-20T15:41:43;6.90;;;1.70;;
78365;SDS011;67641;59.864;30.464;2023-07-20T15:44:09;6.07;;;1.60;;
78365;SDS011;67641;59.864;30.464;2023-07-20T15:49:05;3.97;;;1.20;;
78365;SDS011;67641;59.864;30.464;2023-07-20T15:51:35;5.30;;;1.45;;
78365;SDS011;67641;59.864;30.464;2023-07-20T15:54:02;4.80;;;1.40;;
78365;SDS011;67641;59.864;30.464;2023-07-20T15:56:33;6.25;;;1.40;;
78365;SDS011;67641;59.864;30.464;2023-07-20T15:59:21;4.07;;;1.48;;
78365;SDS011;67641;59.864;30.464;2023-07-20T16:01:47;4.40;;;1.50;;
78365;SDS011;67641;59.864;30.464;2023-07-20T16:04:13;5.47;;;1.70;;
78365;SDS011;67641;59.864;30.464;2023-07-20T16:06:40;5.85;;;1.52;;
78365;SDS011;67641;59.864;30.464;2023-07-20T16:09:07;7.22;;;1.80;;
78365;SDS011;67641;59.864;30.464;2023-07-20T16:11:34;2.85;;;1.42;;